sensor_id;sensor_type;location;lat;lon;timestamp;P1;durP1;ratioP1;P2;durP2;ratioP2
9330;SDS011;4704;50.470;12.072;2023-07-20T00:00:19;3.53;;;2.40;;
9330;SDS011;4704;50.470;12.072;2023-07-20T00:02:49;2.60;;;2.40;;
9330;SDS011;4704;50.470;12.072;2023-07-20T00:05:18;3.85;;;2.30;;
9330;SDS011;4704;50.470;12.072;2023-07-20T00:07:46;2.83;;;2.47;;
9330;SDS011;4704;50.470;12.072;2023-07-20T00:10:17;6.43;;;2.70;;
9330;SDS011;4704;50.470;12.072;2023-07-20T00:12:44;2.88;;;2.63;;
9330;SDS011;4704;50.470;12.072;2023-07-20T00:15:13;2.60;;;2.40;;
9330;SDS011;4704;50.470;12.072;2023-07-20T00:17:40;3.63;;;2.53;;
9330;SDS011;4704;50.470;12.072;2023-07-20T00:20:10;2.75;;;2.55;;
9330;SDS011;4704;50.470;12.072;2023-07-20T00:22:39;2.83;;;2.50;;
9330;SDS011;4704;50.470;12.072;2023-07-20T00:25:07;2.60;;;2.22;;
9330;SDS011;4704;50.470;12.072;2023-07-20T00:27:36;2.45;;;2.17;;
9330;SDS011;4704;50.470;12.072;2023-07-20T00:30:04;2.42;;;2.22;;
9330;SDS011;4704;50.470;12.072;2023-07-20T00:32:32;3.60;;;2.50;;
9330;SDS011;4704;50.470;12.072;2023-07-20T00:35:00;5.40;;;2.25;;
9330;SDS011;4704;50.470;12.072;2023-07-20T00:37:27;4.20;;;2.70;;
9330;SDS011;4704;50.470;12.072;2023-07-20T00:39:56;3.35;;;2.65;;
9330;SDS011;4704;50.470;12.072;2023-07-20T00:42:24;2.58;;;2.33;;
9330;SDS011;4704;50.470;12.072;2023-07-20T00:44:52;2.67;;;2.47;;
9330;SDS011;4704;50.470;12.072;2023-07-20T00:47:19;3.22;;;2.13;;
9330;SDS011;4704;50.470;12.072;2023-07-20T00:49:47;3.45;;;2.30;;
9330;SDS011;4704;50.470;12.072;2023-07-20T00:52:15;6.10;;;2.38;;
9330;SDS011;4704;50.470;12.072;2023-07-20T00:54:43;3.13;;;2.17;;
9330;SDS011;4704;50.470;12.072;2023-07-20T00:57:12;2.75;;;2.40;;
9330;SDS011;4704;50.470;12.072;2023-07-20T00:59:41;2.80;;;2.45;;
9330;SDS011;4704;50.470;12.072;2023-07-20T01:02:09;2.60;;;2.40;;
9330;SDS011;4704;50.470;12.072;2023-07-20T01:04:36;3.85;;;2.38;;
9330;SDS011;4704;50.470;12.072;2023-07-20T01:07:06;3.05;;;2.33;;
9330;SDS011;4704;50.470;12.072;2023-07-20T01:09:39;2.55;;;2.20;;
9330;SDS011;4704;50.470;12.072;2023-07-20T01:12:11;2.72;;;2.28;;
9330;SDS011;4704;50.470;12.072;2023-07-20T01:14:41;3.05;;;2.10;;
9330;SDS011;4704;50.470;12.072;2023-07-20T01:17:09;2.97;;;2.42;;
9330;SDS011;4704;50.470;12.072;2023-07-20T01:19:37;2.40;;;2.20;;
9330;SDS011;4704;50.470;12.072;2023-07-20T01:22:08;3.58;;;2.30;;
9330;SDS011;4704;50.470;12.072;2023-07-20T01:24:45;3.10;;;2.50;;
9330;SDS011;4704;50.470;12.072;2023-07-20T01:30:24;2.65;;;2.13;;
9330;SDS011;4704;50.470;12.072;2023-07-20T01:32:54;3.97;;;2.22;;
9330;SDS011;4704;50.470;12.072;2023-07-20T01:35:23;2.80;;;2.10;;
9330;SDS011;4704;50.470;12.072;2023-07-20T01:37:51;3.25;;;2.40;;
9330;SDS011;4704;50.470;12.072;2023-07-20T01:40:19;2.47;;;2.28;;
9330;SDS011;4704;50.470;12.072;2023-07-20T01:42:47;3.20;;;2.17;;
9330;SDS011;4704;50.470;12.072;2023-07-20T01:45:14;2.55;;;2.35;;
9330;SDS011;4704;50.470;12.072;2023-07-20T01:47:42;3.50;;;2.38;;
9330;SDS011;4704;50.470;12.072;2023-07-20T01:50:12;2.30;;;2.10;;
9330;SDS011;4704;50.470;12.072;2023-07-20T01:52:39;4.90;;;2.10;;
9330;SDS011;4704;50.470;12.072;2023-07-20T01:55:07;2.95;;;2.25;;
9330;SDS011;4704;50.470;12.072;2023-07-20T01:57:35;2.22;;;1.95;;
9330;SDS011;4704;50.470;12.072;2023-07-20T02:00:03;2.97;;;1.90;;
9330;SDS011;4704;50.470;12.072;2023-07-20T02:02:32;2.33;;;2.13;;
9330;SDS011;4704;50.470;12.072;2023-07-20T02:05:00;2.58;;;2.28;;
9330;SDS011;4704;50.470;12.072;2023-07-20T02:07:29;2.55;;;2.10;;
9330;SDS011;4704;50.470;12.072;2023-07-20T02:09:56;2.10;;;1.92;;
9330;SDS011;4704;50.470;12.072;2023-07-20T02:12:24;2.40;;;2.20;;
9330;SDS011;4704;50.470;12.072;2023-07-20T02:14:52;2.10;;;1.90;;
9330;SDS011;4704;50.470;12.072;2023-07-20T02:17:19;2.53;;;1.98;;
9330;SDS011;4704;50.470;12.072;2023-07-20T02:19:49;2.47;;;1.90;;
9330;SDS011;4704;50.470;12.072;2023-07-20T02:22:17;1.85;;;1.70;;
9330;SDS011;4704;50.470;12.072;2023-07-20T02:24:46;2.63;;;1.95;;
9330;SDS011;4704;50.470;12.072;2023-07-20T02:27:14;2.00;;;1.80;;
9330;SDS011;4704;50.470;12.072;2023-07-20T02:29:42;2.65;;;1.80;;
9330;SDS011;4704;50.470;12.072;2023-07-20T02:32:09;2.28;;;1.90;;
9330;SDS011;4704;50.470;12.072;2023-07-20T02:34:37;2.95;;;1.98;;
9330;SDS011;4704;50.470;12.072;2023-07-20T02:37:05;2.17;;;1.67;;
9330;SDS011;4704;50.470;12.072;2023-07-20T02:39:32;1.83;;;1.67;;
9330;SDS011;4704;50.470;12.072;2023-07-20T02:42:02;2.17;;;1.50;;
9330;SDS011;4704;50.470;12.072;2023-07-20T02:44:29;1.80;;;1.30;;
9330;SDS011;4704;50.470;12.072;2023-07-20T02:46:57;2.08;;;1.27;;
9330;SDS011;4704;50.470;12.072;2023-07-20T02:49:24;1.60;;;1.50;;
9330;SDS011;4704;50.470;12.072;2023-07-20T02:51:52;2.72;;;1.40;;
9330;SDS011;4704;50.470;12.072;2023-07-20T02:54:20;2.47;;;1.50;;
9330;SDS011;4704;50.470;12.072;2023-07-20T02:56:48;1.95;;;1.50;;
9330;SDS011;4704;50.470;12.072;2023-07-20T02:59:17;1.60;;;1.50;;
9330;SDS011;4704;50.470;12.072;2023-07-20T03:01:45;1.52;;;1.42;;
9330;SDS011;4704;50.470;12.072;2023-07-20T03:04:12;1.60;;;1.40;;
9330;SDS011;4704;50.470;12.072;2023-07-20T03:06:41;1.50;;;1.40;;
9330;SDS011;4704;50.470;12.072;2023-07-20T03:09:09;2.20;;;1.58;;
9330;SDS011;4704;50.470;12.072;2023-07-20T03:11:37;1.50;;;1.40;;
9330;SDS011;4704;50.470;12.072;2023-07-20T03:14:04;1.90;;;1.70;;
9330;SDS011;4704;50.470;12.072;2023-07-20T03:16:33;2.38;;;1.60;;
9330;SDS011;4704;50.470;12.072;2023-07-20T03:19:01;1.52;;;1.42;;
9330;SDS011;4704;50.470;12.072;2023-07-20T03:21:30;1.65;;;1.55;;
9330;SDS011;4704;50.470;12.072;2023-07-20T03:23:57;1.60;;;1.50;;
9330;SDS011;4704;50.470;12.072;2023-07-20T03:26:25;2.38;;;1.67;;
9330;SDS011;4704;50.470;12.072;2023-07-20T03:28:53;2.00;;;1.50;;
9330;SDS011;4704;50.470;12.072;2023-07-20T03:31:20;1.83;;;1.73;;
9330;SDS011;4704;50.470;12.072;2023-07-20T03:33:49;2.13;;;1.95;;
9330;SDS011;4704;50.470;12.072;2023-07-20T03:36:17;1.58;;;1.45;;
9330;SDS011;4704;50.470;12.072;2023-07-20T03:38:45;2.05;;;1.83;;
9330;SDS011;4704;50.470;12.072;2023-07-20T03:41:12;2.03;;;1.75;;
9330;SDS011;4704;50.470;12.072;2023-07-20T03:43:41;1.90;;;1.80;;
9330;SDS011;4704;50.470;12.072;2023-07-20T03:46:09;2.10;;;2.00;;
9330;SDS011;4704;50.470;12.072;2023-07-20T03:48:36;2.20;;;1.90;;
9330;SDS011;4704;50.470;12.072;2023-07-20T03:51:05;2.17;;;1.88;;
9330;SDS011;4704;50.470;12.072;2023-07-20T03:53:33;1.83;;;1.73;;
9330;SDS011;4704;50.470;12.072;2023-07-20T03:56:01;1.95;;;1.80;;
9330;SDS011;4704;50.470;12.072;2023-07-20T03:58:28;3.08;;;2.08;;
9330;SDS011;4704;50.470;12.072;2023-07-20T04:00:57;2.30;;;1.75;;
9330;SDS011;4704;50.470;12.072;2023-07-20T04:03:24;3.30;;;2.05;;
9330;SDS011;4704;50.470;12.072;2023-07-20T04:05:53;3.97;;;2.20;;
9330;SDS011;4704;50.470;12.072;2023-07-20T04:08:22;3.60;;;2.20;;
9330;SDS011;4704;50.470;12.072;2023-07-20T04:10:50;3.08;;;2.08;;
9330;SDS011;4704;50.470;12.072;2023-07-20T04:13:17;2.78;;;1.92;;
9330;SDS011;4704;50.470;12.072;2023-07-20T04:15:45;2.13;;;1.95;;
9330;SDS011;4704;50.470;12.072;2023-07-20T04:18:12;2.05;;;1.85;;
9330;SDS011;4704;50.470;12.072;2023-07-20T04:20:39;2.05;;;1.88;;
9330;SDS011;4704;50.470;12.072;2023-07-20T04:23:08;2.80;;;2.00;;
9330;SDS011;4704;50.470;12.072;2023-07-20T04:25:36;3.33;;;2.22;;
9330;SDS011;4704;50.470;12.072;2023-07-20T04:28:06;4.35;;;2.25;;
9330;SDS011;4704;50.470;12.072;2023-07-20T04:30:36;2.70;;;2.30;;
9330;SDS011;4704;50.470;12.072;2023-07-20T04:33:04;2.45;;;2.10;;
9330;SDS011;4704;50.470;12.072;2023-07-20T04:35:45;2.33;;;2.13;;
9330;SDS011;4704;50.470;12.072;2023-07-20T04:38:12;2.03;;;1.88;;
9330;SDS011;4704;50.470;12.072;2023-07-20T04:40:42;2.33;;;2.08;;
9330;SDS011;4704;50.470;12.072;2023-07-20T04:43:09;2.65;;;2.15;;
9330;SDS011;4704;50.470;12.072;2023-07-20T04:45:37;2.38;;;1.80;;
9330;SDS011;4704;50.470;12.072;2023-07-20T04:48:06;2.17;;;1.98;;
9330;SDS011;4704;50.470;12.072;2023-07-20T04:50:34;2.03;;;1.90;;
9330;SDS011;4704;50.470;12.072;2023-07-20T04:53:01;3.13;;;2.30;;
9330;SDS011;4704;50.470;12.072;2023-07-20T04:55:29;4.35;;;2.25;;
9330;SDS011;4704;50.470;12.072;2023-07-20T04:57:59;2.90;;;2.13;;
9330;SDS011;4704;50.470;12.072;2023-07-20T05:00:26;2.20;;;2.00;;
9330;SDS011;4704;50.470;12.072;2023-07-20T05:02:54;2.13;;;1.92;;
9330;SDS011;4704;50.470;12.072;2023-07-20T05:05:21;2.35;;;2.17;;
9330;SDS011;4704;50.470;12.072;2023-07-20T05:07:48;3.22;;;2.50;;
9330;SDS011;4704;50.470;12.072;2023-07-20T05:10:17;2.70;;;2.45;;
9330;SDS011;4704;50.470;12.072;2023-07-20T05:12:44;2.38;;;2.05;;
9330;SDS011;4704;50.470;12.072;2023-07-20T05:15:13;2.45;;;2.25;;
9330;SDS011;4704;50.470;12.072;2023-07-20T05:17:40;2.50;;;2.30;;
9330;SDS011;4704;50.470;12.072;2023-07-20T05:20:08;3.50;;;2.13;;
9330;SDS011;4704;50.470;12.072;2023-07-20T05:22:37;2.15;;;2.05;;
9330;SDS011;4704;50.470;12.072;2023-07-20T05:25:06;3.15;;;2.10;;
9330;SDS011;4704;50.470;12.072;2023-07-20T05:27:35;2.30;;;2.08;;
9330;SDS011;4704;50.470;12.072;2023-07-20T05:30:03;5.30;;;2.20;;
9330;SDS011;4704;50.470;12.072;2023-07-20T05:32:33;3.10;;;2.10;;
9330;SDS011;4704;50.470;12.072;2023-07-20T05:35:01;2.45;;;2.25;;
9330;SDS011;4704;50.470;12.072;2023-07-20T05:37:30;2.97;;;2.10;;
9330;SDS011;4704;50.470;12.072;2023-07-20T05:39:57;2.72;;;2.40;;
9330;SDS011;4704;50.470;12.072;2023-07-20T05:42:24;3.67;;;2.35;;
9330;SDS011;4704;50.470;12.072;2023-07-20T05:44:52;4.85;;;2.42;;
9330;SDS011;4704;50.470;12.072;2023-07-20T05:47:20;2.72;;;2.35;;
9330;SDS011;4704;50.470;12.072;2023-07-20T05:49:49;2.60;;;2.20;;
9330;SDS011;4704;50.470;12.072;2023-07-20T05:52:16;2.58;;;2.10;;
9330;SDS011;4704;50.470;12.072;2023-07-20T05:54:44;2.53;;;1.95;;
9330;SDS011;4704;50.470;12.072;2023-07-20T05:57:11;4.13;;;2.42;;
9330;SDS011;4704;50.470;12.072;2023-07-20T05:59:39;2.65;;;2.45;;
9330;SDS011;4704;50.470;12.072;2023-07-20T06:02:09;5.72;;;2.70;;
9330;SDS011;4704;50.470;12.072;2023-07-20T06:04:37;3.33;;;2.60;;
9330;SDS011;4704;50.470;12.072;2023-07-20T06:07:06;3.15;;;2.50;;
9330;SDS011;4704;50.470;12.072;2023-07-20T06:09:34;3.30;;;2.75;;
9330;SDS011;4704;50.470;12.072;2023-07-20T06:12:01;3.20;;;2.67;;
9330;SDS011;4704;50.470;12.072;2023-07-20T06:14:29;3.88;;;2.58;;
9330;SDS011;4704;50.470;12.072;2023-07-20T06:16:56;3.83;;;2.90;;
9330;SDS011;4704;50.470;12.072;2023-07-20T06:19:24;4.78;;;3.08;;
9330;SDS011;4704;50.470;12.072;2023-07-20T06:21:51;3.45;;;2.90;;
9330;SDS011;4704;50.470;12.072;2023-07-20T06:24:20;3.55;;;3.00;;
9330;SDS011;4704;50.470;12.072;2023-07-20T06:26:47;3.05;;;2.75;;
9330;SDS011;4704;50.470;12.072;2023-07-20T06:29:15;4.25;;;2.80;;
9330;SDS011;4704;50.470;12.072;2023-07-20T06:31:42;3.42;;;2.75;;
9330;SDS011;4704;50.470;12.072;2023-07-20T06:34:10;3.70;;;3.00;;
9330;SDS011;4704;50.470;12.072;2023-07-20T06:36:37;3.88;;;3.28;;
9330;SDS011;4704;50.470;12.072;2023-07-20T06:39:05;3.20;;;2.83;;
9330;SDS011;4704;50.470;12.072;2023-07-20T06:41:34;3.00;;;2.67;;
9330;SDS011;4704;50.470;12.072;2023-07-20T06:44:01;3.30;;;2.72;;
9330;SDS011;4704;50.470;12.072;2023-07-20T06:46:30;3.67;;;3.35;;
9330;SDS011;4704;50.470;12.072;2023-07-20T06:48:57;5.85;;;3.58;;
9330;SDS011;4704;50.470;12.072;2023-07-20T06:51:25;3.88;;;3.25;;
9330;SDS011;4704;50.470;12.072;2023-07-20T06:53:52;4.30;;;3.20;;
9330;SDS011;4704;50.470;12.072;2023-07-20T06:56:20;3.92;;;3.33;;
9330;SDS011;4704;50.470;12.072;2023-07-20T06:58:48;3.42;;;3.03;;
9330;SDS011;4704;50.470;12.072;2023-07-20T07:01:16;5.10;;;3.63;;
9330;SDS011;4704;50.470;12.072;2023-07-20T07:03:44;3.83;;;3.40;;
9330;SDS011;4704;50.470;12.072;2023-07-20T07:06:11;3.80;;;3.50;;
9330;SDS011;4704;50.470;12.072;2023-07-20T07:08:39;3.60;;;3.15;;
9330;SDS011;4704;50.470;12.072;2023-07-20T07:11:06;2.97;;;2.78;;
9330;SDS011;4704;50.470;12.072;2023-07-20T07:13:34;3.53;;;3.10;;
9330;SDS011;4704;50.470;12.072;2023-07-20T07:16:03;2.75;;;2.50;;
9330;SDS011;4704;50.470;12.072;2023-07-20T07:18:31;2.75;;;2.55;;
9330;SDS011;4704;50.470;12.072;2023-07-20T07:20:58;3.03;;;2.78;;
9330;SDS011;4704;50.470;12.072;2023-07-20T07:23:26;2.83;;;2.47;;
9330;SDS011;4704;50.470;12.072;2023-07-20T07:25:53;2.97;;;2.78;;
9330;SDS011;4704;50.470;12.072;2023-07-20T07:28:21;3.65;;;3.08;;
9330;SDS011;4704;50.470;12.072;2023-07-20T07:30:48;3.08;;;2.85;;
9330;SDS011;4704;50.470;12.072;2023-07-20T07:33:17;3.75;;;2.90;;
9330;SDS011;4704;50.470;12.072;2023-07-20T07:35:44;4.03;;;3.63;;
9330;SDS011;4704;50.470;12.072;2023-07-20T07:38:12;3.72;;;3.42;;
9330;SDS011;4704;50.470;12.072;2023-07-20T07:40:39;4.28;;;3.53;;
9330;SDS011;4704;50.470;12.072;2023-07-20T07:43:07;3.40;;;3.10;;
9330;SDS011;4704;50.470;12.072;2023-07-20T07:45:35;3.08;;;2.80;;
9330;SDS011;4704;50.470;12.072;2023-07-20T07:48:03;3.92;;;3.58;;
9330;SDS011;4704;50.470;12.072;2023-07-20T07:50:32;3.35;;;3.05;;
9330;SDS011;4704;50.470;12.072;2023-07-20T07:52:59;3.15;;;2.90;;
9330;SDS011;4704;50.470;12.072;2023-07-20T07:55:28;3.10;;;2.90;;
9330;SDS011;4704;50.470;12.072;2023-07-20T07:57:55;3.30;;;3.00;;
9330;SDS011;4704;50.470;12.072;2023-07-20T08:00:23;3.10;;;2.90;;
9330;SDS011;4704;50.470;12.072;2023-07-20T08:02:50;2.90;;;2.70;;
9330;SDS011;4704;50.470;12.072;2023-07-20T08:05:18;4.30;;;2.60;;
9330;SDS011;4704;50.470;12.072;2023-07-20T08:07:46;3.20;;;2.90;;
9330;SDS011;4704;50.470;12.072;2023-07-20T08:10:14;3.15;;;2.90;;
9330;SDS011;4704;50.470;12.072;2023-07-20T08:12:41;2.70;;;2.50;;
9330;SDS011;4704;50.470;12.072;2023-07-20T08:15:10;2.85;;;2.53;;
9330;SDS011;4704;50.470;12.072;2023-07-20T08:17:39;3.10;;;2.80;;
9330;SDS011;4704;50.470;12.072;2023-07-20T08:20:07;2.78;;;2.58;;
9330;SDS011;4704;50.470;12.072;2023-07-20T08:22:37;3.28;;;2.97;;
9330;SDS011;4704;50.470;12.072;2023-07-20T08:25:06;2.95;;;2.75;;
9330;SDS011;4704;50.470;12.072;2023-07-20T08:27:33;2.83;;;2.63;;
9330;SDS011;4704;50.470;12.072;2023-07-20T08:30:01;2.78;;;2.58;;
9330;SDS011;4704;50.470;12.072;2023-07-20T08:32:29;3.15;;;2.65;;
9330;SDS011;4704;50.470;12.072;2023-07-20T08:34:57;2.83;;;2.55;;
9330;SDS011;4704;50.470;12.072;2023-07-20T08:37:24;2.78;;;2.58;;
9330;SDS011;4704;50.470;12.072;2023-07-20T08:39:52;3.17;;;2.88;;
9330;SDS011;4704;50.470;12.072;2023-07-20T08:42:21;3.55;;;3.05;;
9330;SDS011;4704;50.470;12.072;2023-07-20T08:44:49;3.40;;;3.10;;
9330;SDS011;4704;50.470;12.072;2023-07-20T08:47:19;3.20;;;2.90;;
9330;SDS011;4704;50.470;12.072;2023-07-20T08:49:47;3.05;;;2.75;;
9330;SDS011;4704;50.470;12.072;2023-07-20T08:52:15;3.38;;;3.08;;
9330;SDS011;4704;50.470;12.072;2023-07-20T08:54:42;3.00;;;2.80;;
9330;SDS011;4704;50.470;12.072;2023-07-20T08:57:10;2.97;;;2.78;;
9330;SDS011;4704;50.470;12.072;2023-07-20T08:59:42;2.88;;;2.60;;
9330;SDS011;4704;50.470;12.072;2023-07-20T09:02:11;2.83;;;2.63;;
9330;SDS011;4704;50.470;12.072;2023-07-20T09:04:41;2.60;;;2.42;;
9330;SDS011;4704;50.470;12.072;2023-07-20T09:07:09;3.17;;;2.88;;
9330;SDS011;4704;50.470;12.072;2023-07-20T09:09:39;2.97;;;2.78;;
9330;SDS011;4704;50.470;12.072;2023-07-20T09:12:12;3.88;;;2.63;;
9330;SDS011;4704;50.470;12.072;2023-07-20T09:14:40;3.85;;;3.00;;
9330;SDS011;4704;50.470;12.072;2023-07-20T09:17:14;3.10;;;2.80;;
9330;SDS011;4704;50.470;12.072;2023-07-20T09:19:45;2.95;;;2.75;;
9330;SDS011;4704;50.470;12.072;2023-07-20T09:22:13;2.85;;;2.65;;
9330;SDS011;4704;50.470;12.072;2023-07-20T09:24:42;2.90;;;2.70;;
9330;SDS011;4704;50.470;12.072;2023-07-20T09:27:10;3.50;;;3.00;;
9330;SDS011;4704;50.470;12.072;2023-07-20T09:29:46;2.80;;;2.60;;
9330;SDS011;4704;50.470;12.072;2023-07-20T09:32:17;3.22;;;2.92;;
9330;SDS011;4704;50.470;12.072;2023-07-20T09:34:45;3.25;;;2.85;;
9330;SDS011;4704;50.470;12.072;2023-07-20T09:37:13;2.97;;;2.67;;
9330;SDS011;4704;50.470;12.072;2023-07-20T09:39:43;4.13;;;3.00;;
9330;SDS011;4704;50.470;12.072;2023-07-20T09:42:11;2.97;;;2.67;;
9330;SDS011;4704;50.470;12.072;2023-07-20T09:44:39;3.20;;;2.90;;
9330;SDS011;4704;50.470;12.072;2023-07-20T09:47:06;2.83;;;2.63;;
9330;SDS011;4704;50.470;12.072;2023-07-20T09:49:40;2.65;;;2.45;;
9330;SDS011;4704;50.470;12.072;2023-07-20T09:52:08;2.75;;;2.60;;
9330;SDS011;4704;50.470;12.072;2023-07-20T09:54:36;2.70;;;2.50;;
9330;SDS011;4704;50.470;12.072;2023-07-20T09:57:04;3.22;;;2.53;;
9330;SDS011;4704;50.470;12.072;2023-07-20T09:59:34;2.60;;;2.40;;
9330;SDS011;4704;50.470;12.072;2023-07-20T10:02:02;3.20;;;2.10;;
9330;SDS011;4704;50.470;12.072;2023-07-20T10:04:32;2.63;;;2.10;;
9330;SDS011;4704;50.470;12.072;2023-07-20T10:07:04;2.30;;;2.10;;
9330;SDS011;4704;50.470;12.072;2023-07-20T10:09:32;3.03;;;2.20;;
9330;SDS011;4704;50.470;12.072;2023-07-20T10:12:01;3.17;;;2.25;;
9330;SDS011;4704;50.470;12.072;2023-07-20T10:14:29;2.25;;;2.15;;
9330;SDS011;4704;50.470;12.072;2023-07-20T10:16:59;3.65;;;2.42;;
9330;SDS011;4704;50.470;12.072;2023-07-20T10:19:29;2.58;;;2.38;;
9330;SDS011;4704;50.470;12.072;2023-07-20T10:22:00;2.60;;;2.40;;
9330;SDS011;4704;50.470;12.072;2023-07-20T10:24:32;2.53;;;2.33;;
9330;SDS011;4704;50.470;12.072;2023-07-20T10:27:00;2.65;;;2.33;;
9330;SDS011;4704;50.470;12.072;2023-07-20T10:29:28;2.58;;;2.38;;
9330;SDS011;4704;50.470;12.072;2023-07-20T10:31:56;2.78;;;2.40;;
9330;SDS011;4704;50.470;12.072;2023-07-20T10:34:24;2.60;;;2.40;;
9330;SDS011;4704;50.470;12.072;2023-07-20T10:36:51;4.07;;;2.30;;
9330;SDS011;4704;50.470;12.072;2023-07-20T10:39:22;2.60;;;2.40;;
9330;SDS011;4704;50.470;12.072;2023-07-20T10:42:00;2.85;;;2.65;;
9330;SDS011;4704;50.470;12.072;2023-07-20T10:44:28;2.65;;;2.45;;
9330;SDS011;4704;50.470;12.072;2023-07-20T10:46:59;3.20;;;2.72;;
9330;SDS011;4704;50.470;12.072;2023-07-20T10:49:27;2.75;;;2.55;;
9330;SDS011;4704;50.470;12.072;2023-07-20T10:51:58;2.75;;;2.42;;
9330;SDS011;4704;50.470;12.072;2023-07-20T10:54:46;2.80;;;2.47;;
9330;SDS011;4704;50.470;12.072;2023-07-20T10:57:23;4.18;;;2.30;;
9330;SDS011;4704;50.470;12.072;2023-07-20T10:59:50;2.40;;;2.20;;
9330;SDS011;4704;50.470;12.072;2023-07-20T11:02:18;2.45;;;2.00;;
9330;SDS011;4704;50.470;12.072;2023-07-20T11:04:46;2.50;;;2.08;;
9330;SDS011;4704;50.470;12.072;2023-07-20T11:07:17;2.95;;;2.03;;
9330;SDS011;4704;50.470;12.072;2023-07-20T11:09:45;2.58;;;2.00;;
9330;SDS011;4704;50.470;12.072;2023-07-20T11:12:13;2.25;;;2.05;;
9330;SDS011;4704;50.470;12.072;2023-07-20T11:14:43;2.65;;;2.22;;
9330;SDS011;4704;50.470;12.072;2023-07-20T11:17:11;2.20;;;2.00;;
9330;SDS011;4704;50.470;12.072;2023-07-20T11:19:39;2.45;;;2.20;;
9330;SDS011;4704;50.470;12.072;2023-07-20T11:22:07;2.85;;;2.08;;
9330;SDS011;4704;50.470;12.072;2023-07-20T11:24:37;2.45;;;2.03;;
9330;SDS011;4704;50.470;12.072;2023-07-20T11:27:05;2.85;;;2.20;;
9330;SDS011;4704;50.470;12.072;2023-07-20T11:29:34;3.15;;;2.00;;
9330;SDS011;4704;50.470;12.072;2023-07-20T11:32:03;2.67;;;2.20;;
9330;SDS011;4704;50.470;12.072;2023-07-20T11:34:30;2.17;;;2.00;;
9330;SDS011;4704;50.470;12.072;2023-07-20T11:36:58;2.35;;;1.80;;
9330;SDS011;4704;50.470;12.072;2023-07-20T11:39:26;2.63;;;1.98;;
9330;SDS011;4704;50.470;12.072;2023-07-20T11:41:55;2.00;;;1.80;;
9330;SDS011;4704;50.470;12.072;2023-07-20T11:44:23;2.15;;;1.98;;
9330;SDS011;4704;50.470;12.072;2023-07-20T11:46:59;2.28;;;2.08;;
9330;SDS011;4704;50.470;12.072;2023-07-20T11:49:30;2.30;;;2.10;;
9330;SDS011;4704;50.470;12.072;2023-07-20T11:51:57;1.80;;;1.70;;
9330;SDS011;4704;50.470;12.072;2023-07-20T11:54:25;1.92;;;1.70;;
9330;SDS011;4704;50.470;12.072;2023-07-20T11:56:53;1.77;;;1.67;;
9330;SDS011;4704;50.470;12.072;2023-07-20T11:59:21;1.98;;;1.70;;
9330;SDS011;4704;50.470;12.072;2023-07-20T12:01:49;2.10;;;1.90;;
9330;SDS011;4704;50.470;12.072;2023-07-20T12:04:16;2.65;;;1.83;;
9330;SDS011;4704;50.470;12.072;2023-07-20T12:06:46;2.38;;;1.80;;
9330;SDS011;4704;50.470;12.072;2023-07-20T12:09:13;2.13;;;1.70;;
9330;SDS011;4704;50.470;12.072;2023-07-20T12:11:42;1.98;;;1.88;;
9330;SDS011;4704;50.470;12.072;2023-07-20T12:14:10;1.73;;;1.63;;
9330;SDS011;4704;50.470;12.072;2023-07-20T12:16:37;2.00;;;1.80;;
9330;SDS011;4704;50.470;12.072;2023-07-20T12:19:05;1.90;;;1.80;;
9330;SDS011;4704;50.470;12.072;2023-07-20T12:21:34;2.28;;;1.90;;
9330;SDS011;4704;50.470;12.072;2023-07-20T12:24:03;2.25;;;1.90;;
9330;SDS011;4704;50.470;12.072;2023-07-20T12:26:31;2.00;;;1.90;;
9330;SDS011;4704;50.470;12.072;2023-07-20T12:28:59;1.85;;;1.75;;
9330;SDS011;4704;50.470;12.072;2023-07-20T12:31:28;1.83;;;1.73;;
9330;SDS011;4704;50.470;12.072;2023-07-20T12:33:56;2.05;;;1.70;;
9330;SDS011;4704;50.470;12.072;2023-07-20T12:36:24;1.80;;;1.70;;
9330;SDS011;4704;50.470;12.072;2023-07-20T12:38:51;2.10;;;2.00;;
9330;SDS011;4704;50.470;12.072;2023-07-20T12:41:20;2.22;;;2.05;;
9330;SDS011;4704;50.470;12.072;2023-07-20T12:43:48;1.92;;;1.83;;
9330;SDS011;4704;50.470;12.072;2023-07-20T12:46:15;2.20;;;2.00;;
9330;SDS011;4704;50.470;12.072;2023-07-20T12:48:42;2.30;;;2.20;;
9330;SDS011;4704;50.470;12.072;2023-07-20T12:51:11;2.13;;;1.95;;
9330;SDS011;4704;50.470;12.072;2023-07-20T12:53:38;2.20;;;2.00;;
9330;SDS011;4704;50.470;12.072;2023-07-20T12:56:06;2.58;;;2.38;;
9330;SDS011;4704;50.470;12.072;2023-07-20T12:58:35;2.00;;;1.90;;
9330;SDS011;4704;50.470;12.072;2023-07-20T13:01:02;2.10;;;2.00;;
9330;SDS011;4704;50.470;12.072;2023-07-20T13:03:30;2.13;;;2.03;;
9330;SDS011;4704;50.470;12.072;2023-07-20T13:05:59;2.58;;;2.38;;
9330;SDS011;4704;50.470;12.072;2023-07-20T13:08:26;2.40;;;2.30;;
9330;SDS011;4704;50.470;12.072;2023-07-20T13:10:54;2.92;;;2.72;;
9330;SDS011;4704;50.470;12.072;2023-07-20T13:13:21;2.88;;;2.67;;
9330;SDS011;4704;50.470;12.072;2023-07-20T13:15:50;2.47;;;2.33;;
9330;SDS011;4704;50.470;12.072;2023-07-20T13:18:19;2.40;;;2.30;;
9330;SDS011;4704;50.470;12.072;2023-07-20T13:20:46;2.38;;;2.28;;
9330;SDS011;4704;50.470;12.072;2023-07-20T13:23:14;2.50;;;2.30;;
9330;SDS011;4704;50.470;12.072;2023-07-20T13:25:41;2.38;;;2.28;;
9330;SDS011;4704;50.470;12.072;2023-07-20T13:28:08;2.75;;;2.55;;
9330;SDS011;4704;50.470;12.072;2023-07-20T13:30:36;2.47;;;2.28;;
9330;SDS011;4704;50.470;12.072;2023-07-20T13:33:04;2.65;;;2.40;;
9330;SDS011;4704;50.470;12.072;2023-07-20T13:35:32;2.20;;;2.10;;
9330;SDS011;4704;50.470;12.072;2023-07-20T13:37:59;2.28;;;2.10;;
9330;SDS011;4704;50.470;12.072;2023-07-20T13:40:27;2.42;;;2.22;;
9330;SDS011;4704;50.470;12.072;2023-07-20T13:42:54;2.60;;;2.40;;
9330;SDS011;4704;50.470;12.072;2023-07-20T13:45:21;2.13;;;2.03;;
9330;SDS011;4704;50.470;12.072;2023-07-20T13:47:49;2.25;;;2.05;;
9330;SDS011;4704;50.470;12.072;2023-07-20T13:50:17;1.92;;;1.83;;
9330;SDS011;4704;50.470;12.072;2023-07-20T13:52:45;2.10;;;1.92;;
9330;SDS011;4704;50.470;12.072;2023-07-20T13:55:12;1.85;;;1.75;;
9330;SDS011;4704;50.470;12.072;2023-07-20T13:57:40;1.90;;;1.80;;
9330;SDS011;4704;50.470;12.072;2023-07-20T14:00:08;2.00;;;1.90;;
9330;SDS011;4704;50.470;12.072;2023-07-20T14:02:36;1.92;;;1.83;;
9330;SDS011;4704;50.470;12.072;2023-07-20T14:05:03;2.40;;;2.20;;
9330;SDS011;4704;50.470;12.072;2023-07-20T14:07:32;1.88;;;1.77;;
9330;SDS011;4704;50.470;12.072;2023-07-20T14:10:00;2.30;;;2.20;;
9330;SDS011;4704;50.470;12.072;2023-07-20T14:12:28;2.00;;;1.90;;
9330;SDS011;4704;50.470;12.072;2023-07-20T14:14:55;2.05;;;1.95;;
9330;SDS011;4704;50.470;12.072;2023-07-20T14:17:23;2.28;;;2.08;;
9330;SDS011;4704;50.470;12.072;2023-07-20T14:19:50;2.00;;;1.90;;
9330;SDS011;4704;50.470;12.072;2023-07-20T14:22:18;2.08;;;1.98;;
9330;SDS011;4704;50.470;12.072;2023-07-20T14:24:47;1.95;;;1.75;;
9330;SDS011;4704;50.470;12.072;2023-07-20T14:27:14;2.40;;;2.00;;
9330;SDS011;4704;50.470;12.072;2023-07-20T14:29:42;2.00;;;1.90;;
9330;SDS011;4704;50.470;12.072;2023-07-20T14:32:10;2.30;;;2.20;;
9330;SDS011;4704;50.470;12.072;2023-07-20T14:34:37;1.92;;;1.83;;
9330;SDS011;4704;50.470;12.072;2023-07-20T14:37:05;1.95;;;1.85;;
9330;SDS011;4704;50.470;12.072;2023-07-20T14:39:33;2.20;;;2.10;;
9330;SDS011;4704;50.470;12.072;2023-07-20T14:42:02;1.90;;;1.80;;
9330;SDS011;4704;50.470;12.072;2023-07-20T14:44:30;1.95;;;1.85;;
9330;SDS011;4704;50.470;12.072;2023-07-20T14:46:57;1.80;;;1.70;;
9330;SDS011;4704;50.470;12.072;2023-07-20T14:49:25;2.00;;;1.90;;
9330;SDS011;4704;50.470;12.072;2023-07-20T14:51:53;1.83;;;1.73;;
9330;SDS011;4704;50.470;12.072;2023-07-20T14:54:20;1.80;;;1.70;;
9330;SDS011;4704;50.470;12.072;2023-07-20T14:56:48;1.85;;;1.75;;
9330;SDS011;4704;50.470;12.072;2023-07-20T14:59:19;1.95;;;1.85;;
9330;SDS011;4704;50.470;12.072;2023-07-20T15:01:46;2.00;;;1.90;;
9330;SDS011;4704;50.470;12.072;2023-07-20T15:04:14;2.00;;;1.80;;
9330;SDS011;4704;50.470;12.072;2023-07-20T15:06:41;1.80;;;1.70;;
9330;SDS011;4704;50.470;12.072;2023-07-20T15:09:09;1.80;;;1.70;;